createdAt,value
2023-12-09T00:00:41.387Z,14.43
2023-12-09T00:03:09.845Z,14.75
2023-12-09T00:05:37.366Z,14.63
2023-12-09T00:08:04.448Z,15.00
2023-12-09T00:10:31.303Z,14.32
2023-12-09T00:12:58.263Z,14.25
2023-12-09T00:15:25.123Z,14.57
2023-12-09T00:17:52.432Z,15.00
2023-12-09T00:20:19.621Z,14.13
2023-12-09T00:22:46.422Z,13.82
2023-12-09T00:25:13.232Z,14.98
2023-12-09T00:27:40.216Z,14.32
2023-12-09T00:30:08.213Z,14.93
2023-12-09T00:32:35.160Z,14.60
2023-12-09T00:35:01.999Z,13.88
2023-12-09T00:37:28.985Z,14.05
2023-12-09T00:39:55.741Z,13.63
2023-12-09T00:42:22.626Z,15.88
2023-12-09T00:44:49.709Z,15.07
2023-12-09T00:47:16.657Z,15.52
2023-12-09T00:49:43.851Z,15.15
2023-12-09T00:52:12.329Z,15.77
2023-12-09T00:54:39.156Z,14.02
2023-12-09T00:57:05.956Z,16.85
2023-12-09T00:59:33.844Z,16.23
2023-12-09T01:02:00.862Z,16.52
2023-12-09T01:04:28.001Z,14.43
2023-12-09T01:06:54.909Z,14.05
2023-12-09T01:09:21.813Z,14.10
2023-12-09T01:11:48.700Z,15.05
2023-12-09T01:14:15.557Z,13.57
2023-12-09T01:16:42.404Z,14.75
2023-12-09T01:19:09.352Z,13.13
2023-12-09T01:21:36.463Z,13.98
2023-12-09T01:24:05.807Z,13.90
2023-12-09T01:26:33.043Z,13.68
2023-12-09T01:29:01.383Z,13.77
2023-12-09T01:31:28.425Z,14.00
2023-12-09T01:33:55.393Z,12.93
2023-12-09T01:36:22.343Z,14.45
2023-12-09T01:38:49.317Z,13.68
2023-12-09T01:41:16.391Z,14.80
2023-12-09T01:43:48.519Z,14.30
2023-12-09T01:46:17.198Z,14.45
2023-12-09T01:48:44.332Z,13.10
2023-12-09T01:51:11.807Z,15.75
2023-12-09T01:53:38.722Z,12.95
2023-12-09T01:56:09.672Z,12.55
2023-12-09T01:58:39.216Z,13.00
2023-12-09T02:01:06.882Z,12.80
2023-12-09T02:03:34.758Z,12.73
2023-12-09T02:06:02.181Z,14.38
2023-12-09T02:08:29.083Z,12.88
2023-12-09T02:11:09.949Z,13.05
2023-12-09T02:13:52.939Z,12.43
2023-12-09T02:16:28.231Z,13.25
2023-12-09T02:18:57.050Z,13.57
2023-12-09T02:21:23.941Z,14.35
2023-12-09T02:23:51.085Z,14.55
2023-12-09T02:26:27.680Z,14.05
2023-12-09T02:29:03.939Z,12.95
2023-12-09T02:31:35.443Z,13.82
2023-12-09T02:34:04.587Z,14.07
2023-12-09T02:36:33.145Z,13.73
2023-12-09T02:39:03.287Z,15.15
2023-12-09T02:41:32.150Z,14.82
2023-12-09T02:43:59.287Z,14.52
2023-12-09T02:46:26.448Z,15.68
2023-12-09T02:48:53.490Z,14.63
2023-12-09T02:51:20.435Z,14.77
2023-12-09T02:53:47.420Z,15.65
2023-12-09T02:56:14.187Z,14.50
2023-12-09T02:58:41.056Z,15.02
2023-12-09T03:01:07.942Z,15.38
2023-12-09T03:03:34.816Z,15.55
2023-12-09T03:06:01.708Z,15.70
2023-12-09T03:08:28.532Z,14.80
2023-12-09T03:10:55.397Z,15.10
2023-12-09T03:13:22.235Z,15.40
2023-12-09T03:15:49.047Z,14.20
2023-12-09T03:18:16.189Z,15.88
2023-12-09T03:20:43.190Z,15.10
2023-12-09T03:23:09.995Z,14.43
2023-12-09T03:25:36.725Z,16.30
2023-12-09T03:28:04.296Z,16.08
2023-12-09T03:30:31.250Z,14.38
2023-12-09T03:32:58.316Z,15.50
2023-12-09T03:35:25.207Z,14.07
2023-12-09T03:37:52.094Z,15.85
2023-12-09T03:40:18.885Z,15.18
2023-12-09T03:42:45.760Z,15.10
2023-12-09T03:45:12.676Z,16.23
2023-12-09T03:47:39.610Z,16.27
2023-12-09T03:50:06.869Z,17.45
2023-12-09T03:52:33.803Z,15.90
2023-12-09T03:55:00.602Z,15.20
2023-12-09T03:57:27.465Z,15.55
2023-12-09T03:59:54.304Z,16.85
2023-12-09T04:02:21.659Z,15.98
2023-12-09T04:04:48.526Z,14.48
2023-12-09T04:07:15.381Z,15.88
2023-12-09T04:09:42.610Z,14.50
2023-12-09T04:12:09.571Z,15.95
2023-12-09T04:14:36.423Z,15.80
2023-12-09T04:17:03.397Z,14.98
2023-12-09T04:19:30.686Z,14.98
2023-12-09T04:21:57.586Z,16.27
2023-12-09T04:24:24.454Z,16.25
2023-12-09T04:26:51.228Z,15.63
2023-12-09T04:29:18.046Z,16.02
2023-12-09T04:31:45.373Z,15.48
2023-12-09T04:34:12.325Z,16.17
2023-12-09T04:36:39.379Z,15.20
2023-12-09T04:39:06.992Z,14.88
2023-12-09T04:41:33.922Z,16.20
2023-12-09T04:44:00.763Z,14.45
2023-12-09T04:46:28.438Z,14.93
2023-12-09T04:48:55.358Z,16.15
2023-12-09T04:51:22.254Z,15.90
2023-12-09T04:53:49.218Z,16.45
2023-12-09T04:56:16.341Z,16.42
2023-12-09T04:58:43.103Z,15.63
2023-12-09T05:01:09.948Z,16.98
2023-12-09T05:03:37.442Z,15.80
2023-12-09T05:06:05.629Z,16.48
2023-12-09T05:08:33.153Z,16.08
2023-12-09T05:11:00.042Z,14.60
2023-12-09T05:13:26.867Z,16.65
2023-12-09T05:15:53.701Z,15.75
2023-12-09T05:18:20.653Z,14.73
2023-12-09T05:20:47.645Z,13.80
2023-12-09T05:23:14.471Z,14.10
2023-12-09T05:25:41.254Z,14.40
2023-12-09T05:28:08.059Z,14.70
2023-12-09T05:30:34.900Z,15.98
2023-12-09T05:33:01.841Z,14.07
2023-12-09T05:35:29.256Z,14.50
2023-12-09T05:37:56.239Z,14.98
2023-12-09T05:40:23.145Z,15.48
2023-12-09T05:42:50.223Z,15.70
2023-12-09T05:45:17.213Z,14.05
2023-12-09T05:47:44.327Z,13.80
2023-12-09T05:50:11.598Z,15.07
2023-12-09T05:52:38.514Z,14.18
2023-12-09T05:55:05.915Z,14.23
2023-12-09T05:57:32.828Z,13.35
2023-12-09T05:59:59.833Z,14.05
2023-12-09T06:02:26.981Z,15.07
2023-12-09T06:04:53.941Z,13.95
2023-12-09T06:07:20.761Z,14.52
2023-12-09T06:09:47.872Z,14.80
2023-12-09T06:12:14.836Z,14.02
2023-12-09T06:14:43.384Z,14.32
2023-12-09T06:17:10.362Z,14.25
2023-12-09T06:19:37.330Z,14.05
2023-12-09T06:22:04.309Z,14.23
2023-12-09T06:24:31.157Z,13.43
2023-12-09T06:26:58.314Z,14.38
2023-12-09T06:29:25.291Z,13.00
2023-12-09T06:31:52.201Z,15.30
2023-12-09T06:34:19.104Z,14.57
2023-12-09T06:36:46.043Z,13.45
2023-12-09T06:39:12.920Z,14.88
2023-12-09T06:41:41.132Z,15.38
2023-12-09T06:44:08.396Z,14.60
2023-12-09T06:46:41.733Z,15.10
2023-12-09T06:49:09.011Z,14.57
2023-12-09T06:51:36.025Z,13.52
2023-12-09T06:54:04.038Z,14.60
2023-12-09T06:56:30.981Z,13.57
2023-12-09T06:58:57.852Z,15.63
2023-12-09T07:01:25.556Z,14.63
2023-12-09T07:03:52.776Z,13.27
2023-12-09T07:06:23.386Z,14.48
2023-12-09T07:08:50.358Z,13.82
2023-12-09T07:11:17.796Z,13.23
2023-12-09T07:13:45.095Z,13.20
2023-12-09T07:16:14.254Z,14.57
2023-12-09T07:18:45.480Z,15.00
2023-12-09T07:21:12.771Z,13.95
2023-12-09T07:23:39.836Z,16.33
2023-12-09T07:26:07.647Z,13.05
2023-12-09T07:28:34.984Z,13.70
2023-12-09T07:31:02.429Z,13.70
2023-12-09T07:33:29.360Z,15.05
2023-12-09T07:35:56.384Z,13.73
2023-12-09T07:38:23.362Z,15.07
2023-12-09T07:40:50.278Z,15.60
2023-12-09T07:43:17.111Z,15.23
2023-12-09T07:45:44.063Z,14.05
2023-12-09T07:48:10.997Z,15.25
2023-12-09T07:50:37.896Z,15.32
2023-12-09T07:53:05.401Z,13.70
2023-12-09T07:55:32.287Z,13.13
2023-12-09T07:57:59.220Z,15.00
2023-12-09T08:00:29.655Z,14.90
2023-12-09T08:02:56.701Z,14.68
2023-12-09T08:05:24.889Z,15.00
2023-12-09T08:07:54.722Z,14.25
2023-12-09T08:10:21.585Z,14.00
2023-12-09T08:12:48.450Z,13.88
2023-12-09T08:15:15.493Z,13.68
2023-12-09T08:17:42.407Z,14.40
2023-12-09T08:20:10.437Z,14.50
2023-12-09T08:22:39.960Z,14.80
2023-12-09T08:25:14.302Z,15.35
2023-12-09T08:27:41.395Z,13.40
2023-12-09T08:30:11.704Z,14.05
2023-12-09T08:32:40.852Z,14.43
2023-12-09T08:35:10.491Z,14.05
2023-12-09T08:37:38.730Z,15.02
2023-12-09T08:40:13.521Z,14.63
2023-12-09T08:42:42.005Z,14.95
2023-12-09T08:45:11.174Z,14.30
2023-12-09T08:47:39.872Z,13.90
2023-12-09T08:50:21.413Z,14.50
2023-12-09T08:52:55.056Z,14.95
2023-12-09T08:55:23.089Z,13.35
2023-12-09T08:57:51.410Z,15.45
2023-12-09T09:00:22.140Z,14.25
2023-12-09T09:02:49.924Z,13.63
2023-12-09T09:05:17.059Z,14.05
2023-12-09T09:07:47.305Z,13.45
2023-12-09T09:10:15.209Z,14.07
2023-12-09T09:12:44.788Z,14.20
2023-12-09T09:15:12.205Z,13.93
2023-12-09T09:17:40.686Z,14.95
2023-12-09T09:20:08.381Z,15.10
2023-12-09T09:22:35.529Z,13.32
2023-12-09T09:25:03.018Z,14.05
2023-12-09T09:27:30.210Z,15.27
2023-12-09T09:29:57.379Z,15.25
2023-12-09T09:32:24.419Z,14.02
2023-12-09T09:34:51.582Z,16.17
2023-12-09T09:37:18.517Z,15.55
2023-12-09T09:39:45.674Z,15.45
2023-12-09T09:42:27.069Z,15.52
2023-12-09T09:45:24.289Z,16.02
2023-12-09T09:47:54.793Z,12.95
2023-12-09T09:50:26.203Z,14.38
2023-12-09T09:52:54.414Z,15.80
2023-12-09T09:55:26.396Z,14.75
2023-12-09T09:57:54.128Z,16.63
2023-12-09T10:00:22.825Z,17.58
2023-12-09T10:02:56.732Z,16.13
2023-12-09T10:05:24.982Z,15.30
2023-12-09T10:07:53.097Z,16.10
2023-12-09T10:10:20.269Z,15.27
2023-12-09T10:12:47.443Z,15.52
2023-12-09T10:15:14.392Z,15.13
2023-12-09T10:17:42.118Z,17.13
2023-12-09T10:20:11.994Z,15.05
2023-12-09T10:22:40.009Z,16.25
2023-12-09T10:25:09.948Z,15.30
2023-12-09T10:27:37.241Z,16.00
2023-12-09T10:30:04.778Z,15.70
2023-12-09T10:32:34.182Z,16.42
2023-12-09T10:35:04.450Z,16.70
2023-12-09T10:37:33.280Z,15.75
2023-12-09T10:40:05.117Z,14.35
2023-12-09T10:42:32.570Z,17.17
2023-12-09T10:45:04.507Z,14.52
2023-12-09T10:47:32.456Z,15.50
2023-12-09T10:49:59.288Z,15.70
2023-12-09T10:52:26.332Z,15.57
2023-12-09T10:54:53.435Z,16.13
2023-12-09T10:57:20.668Z,15.52
2023-12-09T10:59:47.490Z,15.20
2023-12-09T11:02:17.094Z,14.73
2023-12-09T11:04:44.680Z,16.08
2023-12-09T11:07:12.778Z,15.68
2023-12-09T11:09:41.357Z,13.07
2023-12-09T11:12:09.171Z,15.73
2023-12-09T11:14:38.639Z,16.23
2023-12-09T11:17:38.128Z,15.02
2023-12-09T11:20:15.557Z,17.00
2023-12-09T11:22:44.993Z,14.82
2023-12-09T11:25:20.655Z,16.08
2023-12-09T11:27:50.282Z,14.15
2023-12-09T11:30:43.629Z,15.50
2023-12-09T11:33:11.510Z,15.48
2023-12-09T11:35:39.090Z,14.48
2023-12-09T11:38:08.388Z,16.17
2023-12-09T11:40:35.779Z,16.45
2023-12-09T11:43:09.334Z,15.00
2023-12-09T11:45:39.276Z,14.88
2023-12-09T11:48:06.811Z,14.88
2023-12-09T11:50:33.906Z,15.30
2023-12-09T11:53:01.189Z,15.40
2023-12-09T11:55:28.151Z,15.90
2023-12-09T11:57:55.031Z,15.32
2023-12-09T12:00:22.931Z,16.40
2023-12-09T12:02:50.115Z,14.98
2023-12-09T12:05:17.227Z,13.15
2023-12-09T12:07:44.062Z,15.02
2023-12-09T12:10:11.703Z,15.65
2023-12-09T12:12:38.738Z,14.18
2023-12-09T12:15:06.432Z,14.57
2023-12-09T12:17:41.408Z,15.60
2023-12-09T12:20:12.142Z,15.63
2023-12-09T12:22:41.904Z,15.65
2023-12-09T12:25:09.614Z,14.50
2023-12-09T12:27:40.184Z,15.98
2023-12-09T12:30:09.463Z,16.17
2023-12-09T12:32:39.168Z,14.93
2023-12-09T12:35:07.095Z,15.48
2023-12-09T12:37:34.195Z,15.05
2023-12-09T12:40:01.159Z,16.42
2023-12-09T12:42:28.272Z,15.20
2023-12-09T12:44:56.708Z,15.20
2023-12-09T12:47:24.292Z,15.02
2023-12-09T12:49:51.638Z,15.68
2023-12-09T12:52:18.640Z,15.70
2023-12-09T12:54:45.622Z,15.45
2023-12-09T12:57:12.606Z,15.65
2023-12-09T12:59:39.478Z,15.60
2023-12-09T13:02:06.395Z,13.70
2023-12-09T13:04:33.418Z,15.20
2023-12-09T13:07:00.414Z,14.27
2023-12-09T13:09:27.449Z,15.23
2023-12-09T13:11:54.397Z,14.77
2023-12-09T13:14:21.331Z,15.13
2023-12-09T13:16:48.244Z,14.35
2023-12-09T13:19:15.209Z,15.18
2023-12-09T13:21:42.204Z,14.63
2023-12-09T13:24:09.960Z,14.32
2023-12-09T13:26:36.918Z,15.35
2023-12-09T13:29:03.979Z,14.50
2023-12-09T13:31:31.140Z,15.48
2023-12-09T13:33:58.124Z,13.50
2023-12-09T13:36:25.452Z,14.80
2023-12-09T13:38:52.689Z,14.68
2023-12-09T13:41:19.635Z,14.63
2023-12-09T13:43:47.780Z,14.40
2023-12-09T13:46:14.936Z,14.02
2023-12-09T13:48:42.073Z,14.18
2023-12-09T13:51:11.885Z,15.63
2023-12-09T13:53:38.870Z,14.07
2023-12-09T13:56:06.994Z,14.68
2023-12-09T13:58:33.934Z,14.00
2023-12-09T14:01:01.784Z,14.00
2023-12-09T14:03:29.532Z,14.73
2023-12-09T14:05:56.759Z,14.27
2023-12-09T14:08:23.973Z,14.55
2023-12-09T14:10:50.936Z,14.15
2023-12-09T14:13:19.327Z,14.32
2023-12-09T14:15:46.629Z,14.05
2023-12-09T14:18:13.794Z,13.85
2023-12-09T14:20:41.931Z,13.85
2023-12-09T14:23:08.821Z,13.00
2023-12-09T14:25:35.874Z,13.48
2023-12-09T14:28:02.786Z,13.23
2023-12-09T14:30:29.679Z,13.90
2023-12-09T14:32:56.614Z,13.10
2023-12-09T14:35:23.818Z,13.50
2023-12-09T14:37:51.970Z,12.50
2023-12-09T14:40:19.271Z,12.95
2023-12-09T14:42:46.749Z,13.38
2023-12-09T14:45:15.017Z,12.48
2023-12-09T14:47:53.474Z,13.05
2023-12-09T14:50:25.578Z,11.90
2023-12-09T14:52:52.573Z,12.02
2023-12-09T14:55:20.433Z,11.32
2023-12-09T14:57:48.043Z,11.88
2023-12-09T15:00:15.991Z,10.73
2023-12-09T15:02:42.908Z,11.60
2023-12-09T15:05:10.012Z,12.45
2023-12-09T15:07:37.197Z,10.98
2023-12-09T15:10:04.634Z,11.43
2023-12-09T15:12:32.384Z,12.25
2023-12-09T15:15:01.739Z,11.60
2023-12-09T15:17:28.714Z,12.15
2023-12-09T15:19:56.380Z,11.60
2023-12-09T15:22:25.732Z,11.40
2023-12-09T15:24:52.841Z,12.15
2023-12-09T15:27:20.024Z,10.30
2023-12-09T15:29:47.448Z,12.55
2023-12-09T15:32:14.476Z,12.43
2023-12-09T15:34:41.375Z,12.00
2023-12-09T15:37:08.481Z,13.32
2023-12-09T15:39:40.589Z,12.55
2023-12-09T15:44:35.100Z,11.43
2023-12-09T15:47:02.021Z,12.32
2023-12-09T15:49:29.020Z,12.30
2023-12-09T15:51:56.247Z,11.27
2023-12-09T15:54:24.093Z,11.93
2023-12-09T15:56:51.200Z,13.20
2023-12-09T15:59:18.115Z,12.57
2023-12-09T16:01:45.092Z,13.48
2023-12-09T16:04:12.074Z,12.73
2023-12-09T16:06:39.226Z,13.00
2023-12-09T16:09:06.294Z,13.82
2023-12-09T16:11:34.819Z,12.93
2023-12-09T16:14:01.896Z,13.35
2023-12-09T16:16:29.147Z,12.77
2023-12-09T16:18:56.310Z,12.35
2023-12-09T16:21:24.158Z,14.18
2023-12-09T16:23:51.076Z,13.15
2023-12-09T16:26:18.058Z,13.68
2023-12-09T16:28:46.756Z,12.82
2023-12-09T16:31:15.884Z,12.80
2023-12-09T16:33:43.291Z,11.68
2023-12-09T16:36:10.558Z,13.55
2023-12-09T16:38:37.650Z,13.48
2023-12-09T16:41:04.953Z,12.75
2023-12-09T16:43:32.053Z,12.88
2023-12-09T16:45:59.637Z,13.82
2023-12-09T16:48:26.690Z,14.45
2023-12-09T16:50:53.691Z,14.30
2023-12-09T16:53:20.674Z,12.68
2023-12-09T16:55:47.593Z,12.45
2023-12-09T16:58:16.161Z,13.40
2023-12-09T17:00:44.718Z,12.93
2023-12-09T17:03:11.772Z,12.73
2023-12-09T17:05:38.686Z,12.10
2023-12-09T17:08:05.902Z,12.00
2023-12-09T17:10:33.559Z,11.63
2023-12-09T17:13:00.561Z,11.38
2023-12-09T17:15:27.609Z,12.10
2023-12-09T17:17:54.700Z,11.07
2023-12-09T17:20:21.622Z,11.38
2023-12-09T17:22:49.620Z,11.10
2023-12-09T17:25:18.339Z,10.43
2023-12-09T17:27:45.646Z,12.30
2023-12-09T17:30:16.216Z,11.35
2023-12-09T17:32:43.852Z,11.93
2023-12-09T17:35:10.934Z,11.68
2023-12-09T17:37:38.001Z,10.77
2023-12-09T17:40:07.207Z,12.68
2023-12-09T17:42:34.326Z,11.43
2023-12-09T17:45:01.585Z,11.15
2023-12-09T17:47:34.128Z,11.35
2023-12-09T17:50:04.043Z,10.52
2023-12-09T17:52:33.526Z,11.20
2023-12-09T17:55:02.421Z,10.73
2023-12-09T17:57:29.356Z,11.18
2023-12-09T17:59:56.466Z,11.60
2023-12-09T18:02:24.267Z,11.35
2023-12-09T18:04:51.296Z,11.43
2023-12-09T18:07:18.773Z,11.55
2023-12-09T18:09:47.099Z,12.77
2023-12-09T18:12:14.342Z,11.70
2023-12-09T18:14:41.237Z,11.35
2023-12-09T18:17:08.504Z,10.88
2023-12-09T18:19:35.531Z,11.07
2023-12-09T18:22:02.591Z,12.35
2023-12-09T18:24:29.552Z,12.35
2023-12-09T18:26:56.676Z,11.27
2023-12-09T18:29:23.844Z,11.85
2023-12-09T18:31:50.822Z,12.27
2023-12-09T18:34:17.984Z,13.75
2023-12-09T18:36:45.303Z,13.20
2023-12-09T18:39:12.345Z,12.77
2023-12-09T18:41:39.687Z,12.52
2023-12-09T18:44:07.284Z,11.10
2023-12-09T18:46:34.361Z,12.63
2023-12-09T18:49:01.588Z,12.52
2023-12-09T18:51:28.665Z,12.45
2023-12-09T18:53:55.601Z,12.93
2023-12-09T18:56:25.700Z,11.85
2023-12-09T18:58:52.754Z,13.23
2023-12-09T19:01:19.690Z,13.00
2023-12-09T19:03:46.824Z,12.48
2023-12-09T19:06:13.971Z,13.00
2023-12-09T19:08:42.794Z,13.48
2023-12-09T19:11:09.849Z,13.63
2023-12-09T19:13:36.821Z,14.63
2023-12-09T19:16:04.044Z,12.88
2023-12-09T19:18:31.151Z,12.32
2023-12-09T19:20:58.588Z,14.10
2023-12-09T19:23:25.449Z,13.15
2023-12-09T19:25:52.500Z,13.27
2023-12-09T19:28:19.353Z,12.85
2023-12-09T19:30:46.477Z,14.90
2023-12-09T19:33:13.848Z,14.90
2023-12-09T19:35:40.850Z,13.40
2023-12-09T19:38:07.775Z,13.75
2023-12-09T19:40:35.527Z,14.48
2023-12-09T19:43:02.389Z,15.73
2023-12-09T19:45:29.375Z,15.38
2023-12-09T19:47:57.300Z,15.02
2023-12-09T19:50:24.857Z,11.63
2023-12-09T19:52:52.413Z,16.15
2023-12-09T19:55:19.268Z,15.10
2023-12-09T19:57:46.481Z,14.70
2023-12-09T20:00:16.133Z,14.90
2023-12-09T20:02:45.567Z,15.60
2023-12-09T20:05:12.798Z,15.63
2023-12-09T20:07:39.817Z,16.08
2023-12-09T20:10:07.203Z,15.23
2023-12-09T20:12:34.180Z,15.88
2023-12-09T20:15:01.122Z,15.45
2023-12-09T20:17:27.925Z,16.38
2023-12-09T20:19:54.910Z,16.33
2023-12-09T20:22:22.883Z,15.13
2023-12-09T20:24:49.797Z,14.85
2023-12-09T20:27:17.119Z,15.73
2023-12-09T20:29:44.004Z,16.50
2023-12-09T20:32:10.943Z,15.02
2023-12-09T20:34:37.781Z,16.05
2023-12-09T20:37:05.066Z,15.40
2023-12-09T20:39:32.095Z,16.77
2023-12-09T20:41:59.183Z,15.15
2023-12-09T20:44:26.093Z,15.32
2023-12-09T20:46:54.768Z,14.40
2023-12-09T20:49:22.082Z,14.95
2023-12-09T20:51:49.294Z,15.32
2023-12-09T20:54:16.411Z,14.88
2023-12-09T20:56:43.586Z,14.95
2023-12-09T20:59:10.722Z,14.48
2023-12-09T21:01:48.517Z,14.32
2023-12-09T21:04:15.876Z,14.32
2023-12-09T21:06:42.944Z,14.52
2023-12-09T21:09:10.776Z,14.55
2023-12-09T21:11:38.960Z,15.38
2023-12-09T21:14:07.763Z,14.35
2023-12-09T21:16:35.786Z,14.65
2023-12-09T21:19:03.304Z,15.35
2023-12-09T21:21:34.604Z,14.85
2023-12-09T21:24:01.734Z,13.90
2023-12-09T21:26:28.812Z,14.32
2023-12-09T21:28:56.109Z,14.45
2023-12-09T21:31:23.319Z,13.70
2023-12-09T21:33:50.411Z,13.18
2023-12-09T21:36:17.588Z,14.25
2023-12-09T21:38:45.106Z,13.35
2023-12-09T21:41:20.645Z,14.57
2023-12-09T21:43:49.858Z,13.63
2023-12-09T21:46:21.613Z,14.63
2023-12-09T21:48:49.795Z,12.35
2023-12-09T21:51:17.763Z,11.80
2023-12-09T21:53:44.883Z,12.77
2023-12-09T21:56:24.726Z,13.55
2023-12-09T21:58:52.562Z,13.18
2023-12-09T22:01:20.628Z,13.02
2023-12-09T22:03:48.730Z,13.23
2023-12-09T22:06:16.179Z,12.63
2023-12-09T22:08:44.165Z,13.65
2023-12-09T22:11:12.421Z,14.25
2023-12-09T22:13:39.959Z,14.50
2023-12-09T22:16:07.675Z,12.80
2023-12-09T22:18:34.849Z,14.07
2023-12-09T22:21:02.213Z,12.43
2023-12-09T22:23:29.241Z,13.00
2023-12-09T22:25:56.309Z,14.52
2023-12-09T22:28:23.236Z,12.80
2023-12-09T22:30:50.324Z,12.95
2023-12-09T22:33:17.557Z,13.23
2023-12-09T22:35:44.457Z,13.32
2023-12-09T22:38:11.524Z,13.48
2023-12-09T22:40:38.645Z,12.77
2023-12-09T22:43:06.106Z,12.75
2023-12-09T22:45:33.012Z,11.98
2023-12-09T22:48:00.270Z,12.52
2023-12-09T22:50:27.936Z,11.68
2023-12-09T22:52:54.812Z,11.98
2023-12-09T22:55:23.498Z,11.80
2023-12-09T22:57:50.385Z,10.73
2023-12-09T23:00:19.660Z,11.13
2023-12-09T23:02:46.609Z,13.65
2023-12-09T23:05:13.577Z,11.13
2023-12-09T23:07:40.590Z,12.20
2023-12-09T23:10:07.944Z,11.73
2023-12-09T23:12:34.908Z,11.13
2023-12-09T23:15:02.355Z,11.30
2023-12-09T23:17:29.418Z,11.30
2023-12-09T23:19:56.478Z,11.32
2023-12-09T23:22:23.849Z,12.07
2023-12-09T23:24:50.941Z,11.88
2023-12-09T23:27:18.428Z,10.93
2023-12-09T23:29:45.429Z,13.30
2023-12-09T23:32:13.101Z,10.75
2023-12-09T23:34:40.098Z,12.68
2023-12-09T23:37:07.215Z,12.30
2023-12-09T23:39:34.534Z,11.90
2023-12-09T23:42:01.416Z,12.25
2023-12-09T23:44:28.329Z,11.70
2023-12-09T23:46:55.808Z,12.55
2023-12-09T23:49:24.982Z,12.48
2023-12-09T23:51:51.927Z,12.00
2023-12-09T23:54:19.047Z,12.50
2023-12-09T23:56:46.347Z,12.70
2023-12-09T23:59:13.198Z,12.02
